Time;durP1;ratioP1;P1;durP2;ratioP2;P2;SDS_P1;SDS_P2;PMS_P1;PMS_P2;Temp;Humidity;BMP_temperature;BMP_pressure;BME280_temperature;BME280_humidity;BME280_pressure;Samples;Min_cycle;Max_cycle;Signal;HPM_P1;HPM_P2
2021/08/03 00:01:03;;;;;;;2.80;1.23;;;;;;;18.12;70.75;100255.94;5030312;28;20898;-85
2021/08/03 00:03:33;;;;;;;3.03;1.08;;;;;;;18.13;70.57;100249.34;5033360;28;20431;-85
2021/08/03 00:06:02;;;;;;;2.03;1.50;;;;;;;18.14;70.73;100253.69;5032396;28;20485;-86
2021/08/03 00:08:29;;;;;;;0.95;0.77;;;;;;;18.14;70.73;100250.16;5032053;28;20414;-85
2021/08/03 00:10:56;;;;;;;10.40;1.15;;;;;;;18.14;71.29;100242.72;5029391;28;20411;-86
2021/08/03 00:13:26;;;;;;;3.03;1.05;;;;;;;18.14;71.70;100245.47;5033996;28;20801;-85
2021/08/03 00:15:56;;;;;;;3.80;1.17;;;;;;;18.11;71.75;100240.59;5032479;28;20410;-86
2021/08/03 00:18:22;;;;;;;5.65;1.17;;;;;;;18.09;71.56;100242.81;5016203;28;20917;-86
2021/08/03 00:20:47;;;;;;;4.10;1.03;;;;;;;18.10;71.50;100238.16;5030777;28;20438;-86
2021/08/03 00:23:14;;;;;;;1.58;0.98;;;;;;;18.10;71.45;100238.97;5031576;28;20446;-86
2021/08/03 00:25:40;;;;;;;0.98;0.82;;;;;;;18.10;71.76;100240.91;5032790;28;20450;-85
2021/08/03 00:28:06;;;;;;;1.60;0.80;;;;;;;18.09;71.76;100226.38;5034117;28;20905;-85
2021/08/03 00:30:31;;;;;;;2.55;1.00;;;;;;;18.08;71.55;100238.44;5032156;28;20448;-86
2021/08/03 00:32:56;;;;;;;1.60;1.27;;;;;;;18.10;71.52;100240.91;5032740;28;20766;-86
2021/08/03 00:35:22;;;;;;;3.07;1.10;;;;;;;18.11;72.00;100245.28;5033490;28;20497;-85
2021/08/03 00:37:48;;;;;;;2.37;0.90;;;;;;;18.12;72.27;100238.66;5032846;28;20395;-86
2021/08/03 00:40:16;;;;;;;3.50;0.90;;;;;;;18.11;71.71;100242.53;5033017;28;20834;-85
2021/08/03 00:42:41;;;;;;;1.08;1.08;;;;;;;18.10;71.44;100241.72;5032402;28;20399;-86
2021/08/03 00:45:07;;;;;;;3.63;1.03;;;;;;;18.09;71.11;100244.75;5032855;28;20430;-85
2021/08/03 00:47:32;;;;;;;13.80;5.88;;;;;;;18.03;70.50;100245.94;5032461;28;20960;-86
2021/08/03 00:49:58;;;;;;;6.55;2.78;;;;;;;17.97;70.49;100237.00;5033151;28;20506;-85
2021/08/03 00:52:26;;;;;;;5.47;3.93;;;;;;;17.95;70.45;100241.13;5032108;28;20751;-86
2021/08/03 00:54:52;;;;;;;3.05;2.70;;;;;;;17.93;70.15;100244.19;5032402;28;20400;-85
2021/08/03 00:57:17;;;;;;;6.70;3.40;;;;;;;17.89;70.43;100243.16;5009780;28;20411;-85
2021/08/03 00:59:42;;;;;;;1.45;1.45;;;;;;;17.84;70.15;100239.69;5032128;28;20554;-86
2021/08/03 01:02:08;;;;;;;1.67;1.37;;;;;;;17.80;70.41;100244.13;5031979;28;20407;-86
2021/08/03 01:04:34;;;;;;;1.40;1.00;;;;;;;17.82;70.65;100245.44;5033130;28;20762;-85
2021/08/03 01:07:26;;;;;;;4.95;1.35;;;;;;;17.84;70.60;100247.91;5030892;28;20445;-85
2021/08/03 01:10:23;;;;;;;4.55;1.45;;;;;;;17.78;70.55;100241.69;5014534;28;20766;-85
2021/08/03 01:12:56;;;;;;;2.20;2.10;;;;;;;17.74;70.87;100243.41;5029161;28;20826;-85
2021/08/03 01:15:32;;;;;;;6.32;4.25;;;;;;;17.74;70.78;100242.59;5032893;28;20449;-86
2021/08/03 01:18:15;;;;;;;6.57;4.85;;;;;;;17.76;70.78;100237.59;5030273;28;20830;-85
2021/08/03 01:21:24;;;;;;;3.35;1.75;;;;;;;17.72;70.74;100242.03;5031422;28;20410;-85
2021/08/03 01:23:52;;;;;;;2.97;1.00;;;;;;;17.68;71.04;100239.09;5028689;28;20411;-85
2021/08/03 01:26:35;;;;;;;2.58;0.90;;;;;;;17.68;71.14;100241.84;5028330;28;21094;-85
2021/08/03 01:29:04;;;;;;;3.47;1.02;;;;;;;17.70;70.98;100239.63;5031527;28;20461;-85
2021/08/03 01:31:36;;;;;;;1.55;0.80;;;;;;;17.74;71.17;100237.09;5027689;28;20407;-85
2021/08/03 01:34:07;;;;;;;3.03;1.10;;;;;;;17.77;71.10;100231.03;5031114;28;20818;-85
2021/08/03 01:36:35;;;;;;;4.20;0.80;;;;;;;17.81;70.43;100238.34;5031821;28;20414;-85
2021/08/03 01:39:02;;;;;;;1.60;0.90;;;;;;;17.84;70.56;100236.94;5032438;28;20441;-86
2021/08/03 01:41:28;;;;;;;2.45;0.88;;;;;;;17.84;70.67;100237.75;5030652;28;20498;-85
2021/08/03 01:43:55;;;;;;;1.30;1.20;;;;;;;17.83;70.47;100230.66;5031809;28;20789;-86
2021/08/03 01:46:24;;;;;;;1.30;0.80;;;;;;;17.83;70.20;100236.13;5028208;28;20415;-86
2021/08/03 01:48:50;;;;;;;4.00;1.00;;;;;;;17.78;70.31;100232.66;5031013;28;20415;-85
2021/08/03 01:51:16;;;;;;;3.80;0.85;;;;;;;17.72;70.04;100231.91;5031421;28;20418;-85
2021/08/03 01:53:43;;;;;;;1.20;0.80;;;;;;;17.68;70.21;100232.81;5031906;28;20403;-85
2021/08/03 01:56:10;;;;;;;0.95;0.68;;;;;;;17.63;70.57;100230.94;5030740;28;20502;-85
2021/08/03 01:58:38;;;;;;;4.53;0.70;;;;;;;17.67;69.96;100234.72;5032289;28;20753;-86
2021/08/03 02:01:04;;;;;;;1.63;1.00;;;;;;;17.71;70.06;100233.03;5030952;28;20894;-86
2021/08/03 02:03:30;;;;;;;5.30;1.00;;;;;;;17.69;70.06;100228.94;5031532;28;20396;-85
2021/08/03 02:05:56;;;;;;;4.10;0.80;;;;;;;17.68;70.15;100230.88;5030328;28;21246;-86
2021/08/03 02:08:23;;;;;;;3.25;0.90;;;;;;;17.67;70.18;100225.69;5029636;28;20407;-85
2021/08/03 02:10:49;;;;;;;2.70;0.82;;;;;;;17.63;70.10;100220.00;5019923;28;20411;-86
2021/08/03 02:13:16;;;;;;;1.13;1.00;;;;;;;17.61;70.24;100227.72;5028446;28;20912;-86
2021/08/03 02:15:42;;;;;;;3.00;0.90;;;;;;;17.62;70.60;100229.31;5030205;28;20917;-86
2021/08/03 02:18:08;;;;;;;1.10;0.90;;;;;;;17.59;70.42;100221.69;5031365;28;20398;-85
2021/08/03 02:20:33;;;;;;;1.43;0.90;;;;;;;17.60;70.42;100213.19;5031736;28;20494;-85
2021/08/03 02:22:59;;;;;;;1.20;1.08;;;;;;;17.62;70.79;100210.13;5030413;28;20419;-85
2021/08/03 02:25:25;;;;;;;4.13;1.10;;;;;;;17.60;71.05;100204.16;5031676;28;20898;-86
2021/08/03 02:27:53;;;;;;;2.45;0.80;;;;;;;17.59;70.78;100206.06;5027919;28;20418;-85
2021/08/03 02:30:19;;;;;;;2.80;0.80;;;;;;;17.58;70.61;100198.94;5028978;28;20494;-86
2021/08/03 02:32:51;;;;;;;1.13;0.97;;;;;;;17.59;70.47;100199.75;5030197;28;20881;-85
2021/08/03 02:35:22;;;;;;;1.07;1.00;;;;;;;17.57;70.91;100208.31;5028377;28;20476;-85
2021/08/03 02:37:52;;;;;;;1.98;1.17;;;;;;;17.47;70.52;100211.16;5029776;28;20406;-85
2021/08/03 02:40:17;;;;;;;1.37;1.23;;;;;;;17.37;70.51;100203.09;5027739;28;20837;-85
2021/08/03 02:42:44;;;;;;;2.60;1.30;;;;;;;17.29;70.63;100201.00;5028936;28;20435;-85
2021/08/03 02:45:12;;;;;;;2.70;1.10;;;;;;;17.26;70.88;100204.31;5012606;28;20801;-85
2021/08/03 02:48:13;;;;;;;2.50;1.10;;;;;;;17.25;71.08;100190.94;5027143;28;20994;-85
2021/08/03 02:50:30;;;;;;;3.05;1.10;;;;;;;17.25;71.06;100190.94;5020181;28;20435;-85
2021/08/03 02:53:05;;;;;;;1.20;1.10;;;;;;;17.24;71.19;100190.13;5030038;28;20490;-85
2021/08/03 02:55:41;;;;;;;2.88;1.20;;;;;;;17.24;70.93;100189.31;5029526;28;20425;-85
2021/08/03 02:58:15;;;;;;;2.33;1.10;;;;;;;17.28;71.49;100201.31;5029761;28;20411;-85
2021/08/03 03:00:41;;;;;;;1.10;0.90;;;;;;;17.30;71.46;100199.06;5028755;28;20724;-85
2021/08/03 03:03:14;;;;;;;1.80;1.00;;;;;;;17.26;71.48;100196.09;5029771;28;20419;-85
2021/08/03 03:05:43;;;;;;;1.80;1.30;;;;;;;17.25;71.07;100201.91;5030222;28;20914;-85
2021/08/03 03:08:11;;;;;;;2.50;1.15;;;;;;;17.20;71.34;100191.00;5030602;28;20433;-84
2021/08/03 03:10:47;;;;;;;1.00;1.00;;;;;;;17.19;71.49;100190.19;5030076;28;20399;-86
2021/08/03 03:13:22;;;;;;;2.88;1.08;;;;;;;17.24;71.04;100192.03;5012659;28;20419;-86
2021/08/03 03:15:48;;;;;;;1.10;1.00;;;;;;;17.27;70.85;100181.31;5029546;28;20878;-85
2021/08/03 03:18:15;;;;;;;1.13;1.13;;;;;;;17.29;70.79;100173.59;5031232;28;20448;-85
2021/08/03 03:20:41;;;;;;;2.83;1.02;;;;;;;17.29;70.80;100170.88;5029435;28;20754;-85
2021/08/03 03:23:07;;;;;;;4.30;1.08;;;;;;;17.30;70.80;100169.75;5030937;28;20444;-85
2021/08/03 03:25:33;;;;;;;1.30;1.00;;;;;;;17.30;71.56;100166.22;5029386;28;20423;-86
2021/08/03 03:28:02;;;;;;;1.25;1.13;;;;;;;17.30;71.53;100161.53;5029423;28;20412;-85
2021/08/03 03:30:29;;;;;;;1.70;0.97;;;;;;;17.30;71.57;100166.22;5031120;28;20528;-85
2021/08/03 03:33:02;;;;;;;1.08;1.08;;;;;;;17.26;71.64;100156.94;5028165;28;20399;-86
2021/08/03 03:35:29;;;;;;;2.53;1.48;;;;;;;17.26;71.80;100163.25;5029229;28;20430;-85
2021/08/03 03:37:56;;;;;;;1.33;1.23;;;;;;;17.24;71.63;100165.47;5029700;28;20415;-85
2021/08/03 03:40:22;;;;;;;1.70;1.27;;;;;;;17.20;71.62;100164.44;5031134;28;20383;-85
2021/08/03 03:42:50;;;;;;;2.42;1.00;;;;;;;17.15;72.03;100167.25;5019093;28;20443;-85
2021/08/03 03:45:16;;;;;;;3.22;1.40;;;;;;;17.13;71.68;100170.28;5032090;28;20418;-85
2021/08/03 03:47:52;;;;;;;3.50;1.60;;;;;;;17.06;72.20;100172.56;5011975;28;20794;-83
2021/08/03 03:50:26;;;;;;;1.63;1.40;;;;;;;17.05;72.17;100178.34;5027700;28;20410;-86
2021/08/03 03:53:05;;;;;;;2.38;1.48;;;;;;;17.05;72.62;100176.44;5016603;28;20568;-85
2021/08/03 03:55:31;;;;;;;3.10;1.92;;;;;;;17.09;72.57;100176.66;5020788;28;20937;-86
2021/08/03 03:57:57;;;;;;;4.60;1.70;;;;;;;17.10;72.53;100178.25;5020494;28;20473;-85
2021/08/03 04:00:22;;;;;;;1.70;1.60;;;;;;;17.08;72.33;100177.75;5021103;28;20407;-86
2021/08/03 04:02:50;;;;;;;2.87;1.53;;;;;;;17.04;72.53;100183.00;5022661;28;20410;-85
2021/08/03 04:05:16;;;;;;;3.00;1.40;;;;;;;17.03;72.14;100186.84;5021682;28;20469;-85
2021/08/03 04:07:49;;;;;;;3.55;1.10;;;;;;;17.02;72.11;100181.66;5024029;28;20418;-86
2021/08/03 04:10:17;;;;;;;2.37;1.33;;;;;;;17.05;72.34;100183.81;5022865;28;20441;-85
2021/08/03 04:12:42;;;;;;;5.50;1.47;;;;;;;16.98;72.17;100178.72;5023939;28;21001;-85
2021/08/03 04:15:10;;;;;;;2.67;1.60;;;;;;;17.02;72.16;100173.47;5022540;28;20427;-86
2021/08/03 04:17:36;;;;;;;1.90;1.10;;;;;;;17.07;72.04;100165.16;5021410;28;20407;-85
2021/08/03 04:20:01;;;;;;;3.10;1.63;;;;;;;17.11;71.99;100168.94;5002497;28;20765;-85
2021/08/03 04:22:26;;;;;;;1.80;1.20;;;;;;;17.16;72.36;100173.56;5021231;28;20494;-85
2021/08/03 04:24:52;;;;;;;4.30;1.57;;;;;;;17.15;72.08;100169.19;5021244;28;20435;-85
2021/08/03 04:27:18;;;;;;;4.97;1.25;;;;;;;17.15;72.20;100164.53;5022693;28;20406;-85
2021/08/03 04:29:44;;;;;;;3.40;1.40;;;;;;;17.17;72.22;100165.03;5020906;28;20411;-85
2021/08/03 04:32:09;;;;;;;3.47;1.45;;;;;;;17.19;72.31;100172.97;5022319;28;20419;-86
2021/08/03 04:34:35;;;;;;;2.20;1.40;;;;;;;17.19;72.54;100173.75;5021188;28;20407;-86
2021/08/03 04:37:01;;;;;;;4.83;1.77;;;;;;;17.20;72.21;100174.56;5022089;28;20411;-85
2021/08/03 04:39:26;;;;;;;4.10;1.25;;;;;;;17.21;72.08;100174.28;5020820;28;20768;-85
2021/08/03 04:41:52;;;;;;;3.67;1.40;;;;;;;17.21;71.98;100168.00;5028406;28;20422;-85
2021/08/03 04:44:17;;;;;;;5.40;1.20;;;;;;;17.19;72.01;100156.53;5030973;28;20561;-86
2021/08/03 04:46:42;;;;;;;5.33;1.23;;;;;;;17.15;71.70;100161.78;5023995;28;20418;-85
2021/08/03 04:49:07;;;;;;;3.17;1.27;;;;;;;17.12;71.80;100156.91;5024645;28;20426;-86
2021/08/03 04:51:33;;;;;;;5.00;1.07;;;;;;;17.09;71.53;100157.50;5022062;28;20843;-86
2021/08/03 04:53:58;;;;;;;3.03;1.10;;;;;;;17.06;71.72;100152.56;5018856;28;20410;-86
2021/08/03 04:56:24;;;;;;;3.20;1.17;;;;;;;17.05;71.67;100154.53;5023674;28;20554;-86
2021/08/03 04:58:49;;;;;;;5.70;1.10;;;;;;;17.03;71.74;100143.03;5015347;28;20411;-86
2021/08/03 05:01:14;;;;;;;1.63;1.00;;;;;;;17.03;71.51;100143.03;5025777;28;20762;-85
2021/08/03 05:03:39;;;;;;;3.27;0.90;;;;;;;17.04;71.38;100144.66;5022139;28;20454;-86
2021/08/03 05:06:05;;;;;;;1.50;1.30;;;;;;;17.07;71.25;100143.25;5003240;28;20908;-86
2021/08/03 05:08:30;;;;;;;5.30;1.00;;;;;;;17.10;71.21;100143.50;5023142;28;20451;-86
2021/08/03 05:10:55;;;;;;;2.00;0.97;;;;;;;17.13;71.17;100136.59;5023883;28;20413;-86
2021/08/03 05:13:20;;;;;;;2.10;1.47;;;;;;;17.17;71.21;100139.56;5032234;28;20411;-86
2021/08/03 05:15:46;;;;;;;3.30;1.13;;;;;;;17.22;71.08;100139.50;5024125;28;20446;-88
2021/08/03 05:18:11;;;;;;;6.47;1.17;;;;;;;17.26;70.94;100137.78;5031253;28;20865;-88
2021/08/03 05:20:36;;;;;;;1.10;1.07;;;;;;;17.30;70.77;100136.91;5029459;28;20450;-84
2021/08/03 05:23:01;;;;;;;3.87;1.00;;;;;;;17.32;70.69;100140.13;5031208;28;20423;-85
2021/08/03 05:25:27;;;;;;;1.00;1.00;;;;;;;17.35;71.15;100136.84;5011479;28;20760;-85
2021/08/03 05:27:53;;;;;;;4.90;1.00;;;;;;;17.33;70.83;100136.31;5029642;28;20408;-86
2021/08/03 05:30:18;;;;;;;4.80;1.30;;;;;;;17.27;71.11;100134.75;5026694;28;20419;-88
2021/08/03 05:32:44;;;;;;;3.47;1.70;;;;;;;17.24;71.61;100135.34;5028229;28;20411;-85
2021/08/03 05:35:09;;;;;;;1.30;1.10;;;;;;;17.25;71.54;100133.44;5029878;28;20809;-85
2021/08/03 05:37:36;;;;;;;1.60;0.88;;;;;;;17.27;71.27;100133.94;5028195;28;20469;-85
2021/08/03 05:40:05;;;;;;;2.50;1.40;;;;;;;17.32;71.29;100131.94;5030585;28;20763;-85
2021/08/03 05:42:31;;;;;;;2.90;1.52;;;;;;;17.38;71.21;100132.69;5024972;28;20462;-85
2021/08/03 05:44:56;;;;;;;2.00;1.10;;;;;;;17.48;70.73;100121.56;5025957;28;20427;-87
2021/08/03 05:47:21;;;;;;;2.50;1.25;;;;;;;17.56;70.92;100132.69;5030428;28;20579;-86
2021/08/03 05:49:46;;;;;;;5.40;1.23;;;;;;;17.62;71.21;100136.13;5031752;28;20407;-86
2021/08/03 05:52:12;;;;;;;2.53;1.00;;;;;;;17.64;71.22;100133.94;5029508;28;20468;-86
2021/08/03 05:54:37;;;;;;;1.73;1.20;;;;;;;17.62;71.28;100144.38;5029898;28;20407;-86
2021/08/03 05:57:02;;;;;;;1.73;0.93;;;;;;;17.62;71.26;100150.66;5033218;28;20434;-85
2021/08/03 05:59:28;;;;;;;1.17;1.10;;;;;;;17.65;71.15;100156.69;5030214;28;20407;-84
2021/08/03 06:01:53;;;;;;;1.77;1.30;;;;;;;17.68;71.40;100150.59;5030635;28;20502;-85
2021/08/03 06:04:18;;;;;;;3.07;1.27;;;;;;;17.71;71.71;100152.75;5030907;28;20929;-85
2021/08/03 06:06:48;;;;;;;1.37;1.20;;;;;;;17.77;71.89;100157.84;5025449;28;20903;-86
2021/08/03 06:09:14;;;;;;;4.18;1.30;;;;;;;17.79;71.83;100150.13;5028324;28;20414;-85
2021/08/03 06:11:47;;;;;;;2.90;1.27;;;;;;;17.82;71.37;100162.41;5028704;28;20411;-82
2021/08/03 06:14:30;;;;;;;1.48;1.10;;;;;;;17.81;71.07;100158.06;5029056;28;20411;-81
2021/08/03 06:16:56;;;;;;;2.10;1.20;;;;;;;17.85;70.53;100164.56;5026319;28;20410;-86
2021/08/03 06:19:25;;;;;;;4.78;1.30;;;;;;;17.86;70.25;100163.44;5029706;28;20920;-83
2021/08/03 06:21:51;;;;;;;1.55;1.15;;;;;;;17.87;69.79;100165.06;5027266;28;20912;-83
2021/08/03 06:24:16;;;;;;;2.72;1.00;;;;;;;17.89;70.25;100165.56;5027823;28;20415;-86
2021/08/03 06:26:43;;;;;;;1.33;1.27;;;;;;;17.97;70.49;100170.38;5016963;28;20488;-87
2021/08/03 06:29:09;;;;;;;2.75;1.20;;;;;;;17.99;69.98;100163.47;5018322;28;20853;-84
2021/08/03 06:31:34;;;;;;;4.07;1.00;;;;;;;17.91;70.19;100158.69;5016623;28;20410;-86
2021/08/03 06:34:01;;;;;;;1.83;1.10;;;;;;;17.97;69.94;100162.97;5012727;28;20442;-87
2021/08/03 06:36:26;;;;;;;3.20;1.00;;;;;;;17.96;70.33;100166.81;5025795;28;20506;-80
2021/08/03 06:38:52;;;;;;;1.10;1.10;;;;;;;17.92;70.75;100178.69;5027625;28;20890;-90
2021/08/03 06:41:32;;;;;;;1.60;0.97;;;;;;;17.82;71.01;100178.84;5026901;28;20813;-86
2021/08/03 06:44:10;;;;;;;1.20;1.13;;;;;;;17.64;71.97;100188.75;5024390;28;20759;-87
2021/08/03 06:46:40;;;;;;;2.88;1.20;;;;;;;17.57;72.18;100191.84;5010282;28;20501;-86
2021/08/03 06:49:09;;;;;;;2.17;1.77;;;;;;;17.57;72.05;100197.34;5030750;28;20777;-87
2021/08/03 06:51:37;;;;;;;1.60;1.17;;;;;;;17.55;72.42;100204.19;5028669;28;20407;-87
2021/08/03 06:54:08;;;;;;;1.33;1.20;;;;;;;17.57;72.08;100204.75;5029752;28;20411;-87
2021/08/03 06:56:53;;;;;;;1.52;1.50;;;;;;;17.46;72.46;100205.97;5032050;28;20411;-85
2021/08/03 06:59:25;;;;;;;2.08;1.58;;;;;;;17.42;74.29;100204.94;5026411;28;20454;-87
2021/08/03 07:02:15;;;;;;;13.80;2.90;;;;;;;17.47;76.08;100207.59;5003324;28;20449;-82
2021/08/03 07:04:47;;;;;;;3.78;2.45;;;;;;;17.34;77.20;100211.91;5030051;28;20423;-81
2021/08/03 07:07:14;;;;;;;2.58;2.38;;;;;;;17.33;78.21;100202.03;5021073;28;20442;-81
2021/08/03 07:09:42;;;;;;;4.40;2.53;;;;;;;17.37;78.63;100202.25;5029616;28;20441;-80
2021/08/03 07:12:10;;;;;;;3.97;2.45;;;;;;;17.47;78.74;100207.59;5010857;28;20489;-80
2021/08/03 07:14:37;;;;;;;4.60;2.45;;;;;;;17.48;78.46;100203.75;5027087;28;20441;-81
2021/08/03 07:17:05;;;;;;;2.83;2.60;;;;;;;17.55;78.48;100204.19;5024365;28;20454;-81
2021/08/03 07:19:31;;;;;;;4.03;3.67;;;;;;;17.65;78.84;100206.00;5028333;28;20442;-80
2021/08/03 07:21:57;;;;;;;3.42;2.33;;;;;;;17.70;78.83;100203.16;5027801;28;20407;-81
2021/08/03 07:24:34;;;;;;;2.47;2.28;;;;;;;17.70;78.65;100209.47;5027448;28;20496;-81
2021/08/03 07:27:00;;;;;;;2.53;2.35;;;;;;;17.73;78.36;100217.09;5027957;28;20415;-81
2021/08/03 07:29:26;;;;;;;3.27;2.23;;;;;;;17.76;78.54;100227.47;5029529;28;20489;-81
2021/08/03 07:31:52;;;;;;;2.33;2.07;;;;;;;17.77;78.17;100226.34;5031630;28;20427;-81
2021/08/03 07:34:17;;;;;;;3.00;2.33;;;;;;;17.75;78.53;100230.50;5030933;28;20453;-82
2021/08/03 07:36:45;;;;;;;2.15;1.98;;;;;;;17.62;78.59;100243.84;5029325;28;21224;-82
2021/08/03 07:39:11;;;;;;;3.00;2.30;;;;;;;17.31;78.85;100250.84;5037981;28;20489;-82
2021/08/03 07:41:37;;;;;;;3.15;2.35;;;;;;;17.23;79.42;100243.25;5014577;28;20417;-83
2021/08/03 07:44:03;;;;;;;4.05;2.70;;;;;;;17.09;79.70;100250.56;5025833;28;20875;-83
2021/08/03 07:46:29;;;;;;;3.88;2.63;;;;;;;17.01;80.05;100256.69;5029795;28;20422;-81
2021/08/03 07:48:56;;;;;;;4.07;2.92;;;;;;;17.06;80.32;100246.47;5029043;28;20406;-81
2021/08/03 07:51:21;;;;;;;3.22;2.50;;;;;;;17.12;80.49;100242.56;5029960;28;20413;-81
2021/08/03 07:53:48;;;;;;;2.75;2.50;;;;;;;17.22;80.48;100244.38;5029572;28;20415;-81
2021/08/03 07:56:14;;;;;;;4.05;2.42;;;;;;;17.26;79.81;100245.41;5029531;28;20415;-80
2021/08/03 07:58:39;;;;;;;3.23;2.40;;;;;;;17.22;80.00;100236.16;5033444;28;20411;-81
2021/08/03 08:01:05;;;;;;;3.13;2.47;;;;;;;17.23;79.92;100239.69;5032477;28;20445;-81
2021/08/03 08:03:52;;;;;;;3.93;2.80;;;;;;;17.17;79.67;100251.84;5028374;28;20421;-79
2021/08/03 08:06:17;;;;;;;4.13;2.80;;;;;;;17.18;80.18;100254.28;5027268;28;20532;-80
2021/08/03 08:08:42;;;;;;;5.50;3.10;;;;;;;17.25;80.05;100262.97;5027157;28;20415;-80
2021/08/03 08:11:22;;;;;;;4.83;2.80;;;;;;;17.21;79.93;100267.38;5025849;28;20433;-80
2021/08/03 08:13:47;;;;;;;3.20;2.90;;;;;;;17.23;80.16;100278.84;5036777;28;20983;-82
2021/08/03 08:16:12;;;;;;;4.70;3.00;;;;;;;17.28;80.10;100286.22;5026827;28;20541;-80
2021/08/03 08:18:38;;;;;;;6.07;2.97;;;;;;;17.29;80.42;100288.63;5027032;28;20450;-81
2021/08/03 08:21:04;;;;;;;7.57;2.63;;;;;;;17.35;80.43;100289.41;5031515;28;20945;-80
2021/08/03 08:23:30;;;;;;;7.38;2.92;;;;;;;17.41;80.08;100293.72;5023015;28;20457;-80
2021/08/03 08:25:55;;;;;;;2.10;2.00;;;;;;;17.41;79.88;100289.06;5021931;28;20569;-81
2021/08/03 08:28:29;;;;;;;2.93;2.73;;;;;;;17.47;79.63;100287.03;5029957;28;20413;-80
2021/08/03 08:30:54;;;;;;;4.03;2.38;;;;;;;17.50;79.64;100283.72;5025908;28;20539;-80
2021/08/03 08:33:20;;;;;;;4.18;2.42;;;;;;;17.47;79.32;100279.66;5031129;28;20411;-79
2021/08/03 08:35:54;;;;;;;3.97;2.47;;;;;;;17.42;79.72;100287.13;5024015;28;20493;-80
2021/08/03 08:38:19;;;;;;;3.33;1.83;;;;;;;17.38;78.90;100267.72;5026602;28;20761;-81
2021/08/03 08:40:45;;;;;;;3.20;1.90;;;;;;;17.37;78.78;100268.81;5025977;28;20410;-80
2021/08/03 08:43:18;;;;;;;5.13;2.40;;;;;;;17.35;78.66;100262.84;5022399;28;20423;-81
2021/08/03 08:45:44;;;;;;;1.98;1.40;;;;;;;17.36;78.30;100255.41;4995806;28;20469;-81
2021/08/03 08:48:13;;;;;;;3.50;1.93;;;;;;;17.35;77.63;100256.53;5024265;28;20441;-81
2021/08/03 08:50:40;;;;;;;2.05;1.70;;;;;;;17.35;78.48;100242.84;5026614;28;20427;-80
2021/08/03 08:53:06;;;;;;;1.67;1.67;;;;;;;17.33;78.61;100258.72;5025496;28;20409;-81
2021/08/03 08:55:31;;;;;;;5.53;2.17;;;;;;;17.35;79.11;100251.88;5028122;28;20411;-81
2021/08/03 08:57:56;;;;;;;2.57;1.80;;;;;;;17.36;78.81;100248.00;5028130;28;20829;-81
2021/08/03 09:00:23;;;;;;;3.90;1.90;;;;;;;17.40;78.81;100245.50;5027213;28;20769;-82
2021/08/03 09:02:52;;;;;;;2.05;1.52;;;;;;;17.40;78.86;100260.00;5027528;28;20595;-81
2021/08/03 09:05:27;;;;;;;3.28;2.92;;;;;;;17.44;78.86;100260.25;5031176;28;20419;-81
2021/08/03 09:07:54;;;;;;;2.88;2.25;;;;;;;17.46;79.21;100266.22;5029032;28;20414;-81
2021/08/03 09:10:46;;;;;;;3.05;2.00;;;;;;;17.48;79.16;100270.31;5026445;28;20415;-81
2021/08/03 09:13:20;;;;;;;4.97;2.40;;;;;;;17.57;79.31;100271.31;5028669;28;20410;-81
2021/08/03 09:16:06;;;;;;;3.42;2.15;;;;;;;17.62;78.93;100254.78;5027649;28;20415;-81
2021/08/03 09:18:40;;;;;;;2.65;2.33;;;;;;;17.68;78.50;100239.09;5028332;28;20509;-82
2021/08/03 09:21:27;;;;;;;4.33;1.90;;;;;;;17.75;78.88;100241.47;5028537;28;20544;-82
2021/08/03 09:23:54;;;;;;;2.03;1.38;;;;;;;17.74;78.53;100234.34;5026143;28;20898;-81
2021/08/03 09:26:28;;;;;;;1.60;1.50;;;;;;;17.67;78.43;100240.22;5029907;28;20410;-82
2021/08/03 09:29:05;;;;;;;6.18;1.60;;;;;;;17.63;78.78;100229.03;5029743;28;20971;-82
2021/08/03 09:31:33;;;;;;;3.10;1.60;;;;;;;17.63;78.77;100234.50;5026129;28;20414;-81
2021/08/03 09:33:59;;;;;;;2.00;1.67;;;;;;;17.62;78.88;100229.31;5030968;28;20413;-82
2021/08/03 09:36:58;;;;;;;2.28;1.58;;;;;;;17.60;78.88;100207.69;5029457;28;20414;-82
2021/08/03 09:39:41;;;;;;;2.03;1.17;;;;;;;17.58;78.45;100192.69;4961313;28;20411;-82
2021/08/03 09:42:07;;;;;;;2.20;1.23;;;;;;;17.59;78.59;100195.09;5026970;28;20501;-82
2021/08/03 09:44:33;;;;;;;3.03;1.30;;;;;;;17.63;78.98;100187.91;5029583;28;20423;-81
2021/08/03 09:46:58;;;;;;;2.67;1.00;;;;;;;17.69;79.02;100176.88;5022832;28;20415;-81
2021/08/03 09:49:38;;;;;;;1.67;1.20;;;;;;;17.76;79.37;100196.50;5028108;28;21077;-82
2021/08/03 09:52:08;;;;;;;5.13;1.60;;;;;;;17.82;79.11;100193.38;5018105;28;20411;-82
2021/08/03 09:54:34;;;;;;;1.10;1.10;;;;;;;17.85;78.34;100189.25;5028129;28;20461;-80
2021/08/03 09:57:00;;;;;;;1.10;0.93;;;;;;;17.84;78.05;100184.88;5027393;28;20406;-83
2021/08/03 09:59:35;;;;;;;3.47;1.40;;;;;;;17.97;77.93;100179.44;5025128;28;20418;-83
2021/08/03 10:02:01;;;;;;;1.77;1.02;;;;;;;18.46;76.47;100189.78;5025993;28;20414;-81
2021/08/03 10:04:27;;;;;;;2.37;1.13;;;;;;;19.20;74.12;100187.72;5029095;28;20423;-81
2021/08/03 10:06:53;;;;;;;1.35;0.70;;;;;;;20.31;71.27;100185.09;5026757;28;20774;-81
2021/08/03 10:09:21;;;;;;;0.70;0.50;;;;;;;21.37;67.81;100187.53;5028157;28;20402;-80
2021/08/03 10:11:47;;;;;;;5.78;1.30;;;;;;;22.94;60.01;100190.50;5027536;28;20902;-79
2021/08/03 10:14:12;;;;;;;0.75;0.60;;;;;;;24.29;56.97;100183.41;5025685;28;20418;-79
2021/08/03 10:16:42;;;;;;;2.90;0.60;;;;;;;24.94;54.13;100184.44;5022175;28;20414;-80
2021/08/03 10:19:27;;;;;;;;;;;;;;;;;;;;;
2021/08/03 10:22:05;;;;;;;2.30;0.60;;;;;;;23.43;57.64;100186.97;5004501;28;20415;-80
2021/08/03 10:24:33;;;;;;;0.50;0.50;;;;;;;22.41;60.05;100182.75;5023209;28;20485;-81
2021/08/03 10:27:08;;;;;;;1.45;0.80;;;;;;;21.71;62.12;100159.16;5026692;28;20560;-81
2021/08/03 10:29:38;;;;;;;1.05;0.70;;;;;;;21.87;63.39;100153.94;5021006;28;20415;-81
2021/08/03 10:32:03;;;;;;;1.17;0.60;;;;;;;24.77;55.08;100155.75;5001632;28;20482;-82
2021/08/03 10:34:47;;;;;;;1.48;0.60;;;;;;;27.79;46.26;100157.91;5019987;28;20496;-83
2021/08/03 10:37:13;;;;;;;1.10;0.55;;;;;;;29.77;43.72;100158.38;5019372;28;20441;-84
2021/08/03 10:39:58;;;;;;;1.00;0.52;;;;;;;29.86;41.05;100152.53;5014846;28;20910;-85
2021/08/03 10:42:40;;;;;;;0.55;0.55;;;;;;;28.57;43.89;100153.00;5015536;28;20736;-84
2021/08/03 10:45:16;;;;;;;1.43;0.50;;;;;;;28.43;43.16;100155.53;5018791;28;20419;-84
2021/08/03 10:47:43;;;;;;;0.52;0.47;;;;;;;30.13;41.07;100158.84;5022518;28;20457;-84
2021/08/03 10:50:27;;;;;;;0.90;0.40;;;;;;;31.18;38.57;100149.75;5020041;28;20793;-85
2021/08/03 10:52:55;;;;;;;0.35;0.32;;;;;;;32.61;36.30;100153.47;5003814;28;20411;-85
2021/08/03 10:55:42;;;;;;;0.80;0.40;;;;;;;33.61;32.93;100151.34;5026017;28;20902;-85
2021/08/03 10:58:10;;;;;;;1.00;0.30;;;;;;;33.82;33.15;100157.66;5019434;28;20498;-85
2021/08/03 11:00:49;;;;;;;0.87;0.33;;;;;;;32.17;35.25;100150.22;5020132;28;20451;-86
2021/08/03 11:03:35;;;;;;;0.40;0.40;;;;;;;30.20;39.56;100144.91;5020437;28;20413;-85
2021/08/03 11:06:03;;;;;;;0.93;0.50;;;;;;;28.39;41.93;100138.75;5010298;28;20517;-85
2021/08/03 11:08:30;;;;;;;0.70;0.70;;;;;;;27.95;43.83;100137.53;5015132;28;20518;-83
2021/08/03 11:11:01;;;;;;;1.50;0.57;;;;;;;28.02;42.62;100135.69;5011371;28;20430;-81
2021/08/03 11:13:40;;;;;;;0.70;0.50;;;;;;;28.40;42.21;100139.56;5002217;28;20415;-80
2021/08/03 11:16:12;;;;;;;0.75;0.43;;;;;;;28.04;42.68;100141.69;5011927;28;20471;-84
2021/08/03 11:18:46;;;;;;;3.13;0.60;;;;;;;27.72;44.54;100132.72;5009281;28;21112;-82
2021/08/03 11:21:13;;;;;;;0.40;0.40;;;;;;;27.44;44.89;100136.88;5014411;28;20533;-82
2021/08/03 11:24:00;;;;;;;0.60;0.60;;;;;;;27.27;45.60;100133.31;5010791;28;20425;-82
2021/08/03 11:26:28;;;;;;;1.00;0.43;;;;;;;27.13;44.57;100135.81;5017998;28;21284;-81
2021/08/03 11:28:57;;;;;;;0.75;0.45;;;;;;;26.42;45.86;100126.91;5015931;28;20518;-80
2021/08/03 11:31:55;;;;;;;1.10;0.60;;;;;;;26.27;47.92;100120.19;5011208;28;20825;-80
2021/08/03 11:34:36;;;;;;;0.50;0.50;;;;;;;26.42;47.88;100118.56;5011268;28;20486;-82
2021/08/03 11:37:20;;;;;;;0.40;0.38;;;;;;;26.01;49.53;100109.56;5017118;28;20474;-83